createdAt,value
2018-11-25T00:01:42.109Z,95052.97
2018-11-25T00:04:10.626Z,95048.23
2018-11-25T00:06:39.146Z,95041.36
2018-11-25T00:09:08.712Z,95038.06
2018-11-25T00:11:37.208Z,95038.05
2018-11-25T00:14:05.721Z,95041.34
2018-11-25T00:16:34.241Z,95036.73
2018-11-25T00:19:02.796Z,95038.59
2018-11-25T00:21:31.313Z,95036.55
2018-11-25T00:23:59.837Z,95034.76
2018-11-25T00:26:28.361Z,95035.72
2018-11-25T00:28:56.884Z,95037.79
2018-11-25T00:31:25.406Z,95040.75
2018-11-25T00:33:53.926Z,95037.38
2018-11-25T00:36:22.728Z,95031.55
2018-11-25T00:38:51.254Z,95029.64
2018-11-25T00:41:19.774Z,95028.03
2018-11-25T00:43:48.287Z,95028.36
2018-11-25T00:46:16.840Z,95027.14
2018-11-25T00:48:45.350Z,95018.61
2018-11-25T00:51:13.889Z,95022.67
2018-11-25T00:53:42.484Z,95022.80
2018-11-25T00:56:11.047Z,95024.80
2018-11-25T00:58:39.544Z,95023.62
2018-11-25T01:01:08.995Z,95026.57
2018-11-25T01:03:37.521Z,95023.19
2018-11-25T01:06:06.044Z,95022.95
2018-11-25T01:08:34.561Z,95025.06
2018-11-25T01:11:03.979Z,95029.44
2018-11-25T01:13:32.509Z,95033.88
2018-11-25T01:16:01.013Z,95029.59
2018-11-25T01:18:29.728Z,95030.04
2018-11-25T01:20:58.240Z,95029.94
2018-11-25T01:23:26.753Z,95030.23
2018-11-25T01:25:55.285Z,95023.58
2018-11-25T01:28:23.814Z,95020.73
2018-11-25T01:30:52.553Z,95019.72
2018-11-25T01:33:21.069Z,95017.59
2018-11-25T01:35:49.593Z,95018.01
2018-11-25T01:38:18.120Z,95016.41
2018-11-25T01:40:46.643Z,95008.11
2018-11-25T01:43:16.097Z,95008.19
2018-11-25T01:45:44.687Z,95000.47
2018-11-25T01:48:13.196Z,94992.03
2018-11-25T01:50:41.728Z,94991.42
2018-11-25T01:53:10.349Z,94986.87
2018-11-25T01:55:38.878Z,94987.74
2018-11-25T01:58:07.391Z,94987.98
2018-11-25T02:00:35.926Z,94981.59
2018-11-25T02:03:04.444Z,94977.98
2018-11-25T02:05:32.971Z,94978.81
2018-11-25T02:08:01.508Z,94976.17
2018-11-25T02:10:30.058Z,94973.13
2018-11-25T02:12:58.565Z,94973.16
2018-11-25T02:15:27.097Z,94970.47
2018-11-25T02:17:55.618Z,94961.63
2018-11-25T02:20:24.256Z,94957.55
2018-11-25T02:22:52.769Z,94960.18
2018-11-25T02:25:21.299Z,94961.83
2018-11-25T02:27:49.832Z,94957.84
2018-11-25T02:30:18.378Z,94955.16
2018-11-25T02:32:46.909Z,94945.97
2018-11-25T02:35:15.426Z,94946.88
2018-11-25T02:37:43.969Z,94944.33
2018-11-25T02:40:12.477Z,94944.34
2018-11-25T02:42:42.039Z,94947.10
2018-11-25T02:45:10.589Z,94947.48
2018-11-25T02:47:39.105Z,94944.92
2018-11-25T02:50:07.622Z,94941.47
2018-11-25T02:52:36.215Z,94943.50
2018-11-25T02:55:04.748Z,94947.00
2018-11-25T02:57:33.283Z,94941.83
2018-11-25T03:00:01.807Z,94940.28
2018-11-25T03:02:30.338Z,94944.80
2018-11-25T03:04:58.855Z,94947.48
2018-11-25T03:07:27.405Z,94946.69
2018-11-25T03:09:55.925Z,94953.52
2018-11-25T03:14:09.031Z,94943.84
2018-11-25T03:16:38.104Z,94945.33
2018-11-25T03:19:07.163Z,94940.28
2018-11-25T03:21:36.254Z,94939.95
2018-11-25T03:24:06.472Z,94943.66
2018-11-25T03:26:34.416Z,94943.21
2018-11-25T03:29:03.597Z,94937.56
2018-11-25T03:31:32.638Z,94936.62
2018-11-25T03:36:37.546Z,94937.28
2018-11-25T03:39:06.781Z,94933.84
2018-11-25T03:41:35.930Z,94936.99
2018-11-25T03:44:04.976Z,94936.45
2018-11-25T03:46:34.028Z,94931.41
2018-11-25T03:49:03.091Z,94929.59
2018-11-25T03:54:07.899Z,94919.06
2018-11-25T03:56:37.052Z,94911.36
2018-11-25T03:59:06.094Z,94907.65
2018-11-25T04:01:35.150Z,94908.06
2018-11-25T04:04:04.217Z,94910.05
2018-11-25T04:06:34.266Z,94907.36
2018-11-25T04:11:39.971Z,94903.27
2018-11-25T04:14:09.043Z,94892.95
2018-11-25T04:16:38.105Z,94891.56
2018-11-25T04:19:07.170Z,94886.92
2018-11-25T04:21:36.230Z,94875.76
2018-11-25T04:26:41.035Z,94874.14
2018-11-25T04:29:10.153Z,94873.75
2018-11-25T04:31:39.275Z,94870.27
2018-11-25T04:34:08.334Z,94872.45
2018-11-25T04:36:37.438Z,94873.80
2018-11-25T04:39:06.481Z,94877.68
2018-11-25T04:44:11.283Z,94869.66
2018-11-25T04:46:40.349Z,94866.54
2018-11-25T04:49:09.503Z,94865.73
2018-11-25T04:51:40.460Z,94863.10
2018-11-25T04:54:09.518Z,94867.91
2018-11-25T04:56:38.582Z,94874.47
2018-11-25T04:59:07.634Z,94867.41
2018-11-25T05:01:36.707Z,94862.45
2018-11-25T05:04:05.772Z,94857.20
2018-11-25T05:09:10.575Z,94852.49
2018-11-25T05:16:51.691Z,94852.38
2018-11-25T05:19:20.747Z,94850.69
2018-11-25T05:21:49.815Z,94849.83
2018-11-25T05:24:18.874Z,94850.95
2018-11-25T05:26:47.922Z,94848.10
2018-11-25T05:31:52.782Z,94850.63
2018-11-25T05:34:21.845Z,94849.55
2018-11-25T05:36:50.887Z,94848.09
2018-11-25T05:39:19.962Z,94843.30
2018-11-25T05:41:49.039Z,94837.80
2018-11-25T05:46:53.803Z,94836.25
2018-11-25T05:49:22.879Z,94833.66
2018-11-25T05:51:51.943Z,94832.10
2018-11-25T05:54:21.037Z,94825.97
2018-11-25T05:57:05.026Z,94824.71
2018-11-25T05:59:46.317Z,94822.70
2018-11-25T06:02:15.996Z,94814.72
2018-11-25T06:04:45.084Z,94816.55
2018-11-25T06:07:16.493Z,94808.92
2018-11-25T06:09:45.899Z,94801.32
2018-11-25T06:12:15.658Z,94800.62
2018-11-25T06:14:44.766Z,94797.42
2018-11-25T06:17:13.828Z,94797.66
2018-11-25T06:19:42.884Z,94793.59
2018-11-25T06:22:12.010Z,94795.45
2018-11-25T06:24:41.111Z,94793.15
2018-11-25T06:27:10.179Z,94795.18
2018-11-25T06:29:39.531Z,94791.82
2018-11-25T06:32:08.590Z,94794.36
2018-11-25T06:34:38.657Z,94791.75
2018-11-25T06:37:07.769Z,94792.48
2018-11-25T06:42:12.564Z,94785.22
2018-11-25T06:44:41.612Z,94781.66
2018-11-25T06:47:10.653Z,94778.66
2018-11-25T06:49:39.710Z,94775.92
2018-11-25T06:52:10.012Z,94778.80
2018-11-25T06:54:39.078Z,94779.24
2018-11-25T06:59:43.811Z,94774.11
2018-11-25T07:02:12.885Z,94775.92
2018-11-25T07:04:41.952Z,94776.77
2018-11-25T07:07:11.983Z,94777.03
2018-11-25T07:09:42.012Z,94779.39
2018-11-25T07:14:46.851Z,94780.36
2018-11-25T07:17:16.889Z,94774.73
2018-11-25T07:19:45.943Z,94774.52
2018-11-25T07:24:50.673Z,94769.04
2018-11-25T07:27:19.739Z,94771.87
2018-11-25T07:29:48.803Z,94779.23
2018-11-25T07:32:19.910Z,94771.49
2018-11-25T07:34:48.985Z,94767.63
2018-11-25T07:37:18.078Z,94772.23
2018-11-25T07:42:30.424Z,94765.61
2018-11-25T07:44:59.480Z,94765.05
2018-11-25T07:47:28.517Z,94768.37
2018-11-25T07:49:57.569Z,94773.63
2018-11-25T07:52:31.110Z,94759.20
2018-11-25T07:55:01.133Z,94751.34
2018-11-25T07:57:30.166Z,94754.48
2018-11-25T07:59:59.216Z,94748.98
2018-11-25T08:02:30.284Z,94751.52
2018-11-25T08:04:59.347Z,94753.27
2018-11-25T08:07:28.402Z,94750.11
2018-11-25T08:09:57.447Z,94745.72
2018-11-25T08:12:26.511Z,94748.70
2018-11-25T08:14:55.610Z,94740.67
2018-11-25T08:17:24.674Z,94736.47
2018-11-25T08:19:53.732Z,94735.48
2018-11-25T08:22:22.803Z,94733.33
2018-11-25T08:24:51.850Z,94727.85
2018-11-25T08:27:20.896Z,94725.92
2018-11-25T08:29:49.945Z,94725.12
2018-11-25T08:34:54.746Z,94717.14
2018-11-25T08:37:27.392Z,94720.70
2018-11-25T08:39:56.510Z,94722.22
2018-11-25T08:42:25.553Z,94720.58
2018-11-25T08:44:54.601Z,94714.41
2018-11-25T08:47:23.731Z,94715.44
2018-11-25T08:49:52.780Z,94717.22
2018-11-25T08:52:21.834Z,94723.50
2018-11-25T08:57:27.577Z,94724.45
2018-11-25T08:59:56.595Z,94720.92
2018-11-25T09:05:01.352Z,94710.49
2018-11-25T09:10:06.631Z,94703.11
2018-11-25T09:12:35.686Z,94706.44
2018-11-25T09:15:04.893Z,94705.94
2018-11-25T09:17:34.045Z,94705.14
2018-11-25T09:20:03.075Z,94701.20
2018-11-25T09:22:33.076Z,94698.23
2018-11-25T09:25:02.114Z,94697.80
2018-11-25T09:27:31.178Z,94691.66
2018-11-25T09:32:35.971Z,94681.03
2018-11-25T09:35:05.110Z,94675.99
2018-11-25T09:37:34.163Z,94673.90
2018-11-25T09:40:04.148Z,94670.62
2018-11-25T09:42:33.220Z,94669.78
2018-11-25T09:45:02.281Z,94673.59
2018-11-25T09:47:33.342Z,94673.20
2018-11-25T09:50:02.372Z,94672.81
2018-11-25T09:52:31.449Z,94665.78
2018-11-25T09:55:00.599Z,94657.61
2018-11-25T09:57:29.621Z,94655.96
2018-11-25T10:00:00.719Z,94658.16
2018-11-25T10:02:30.674Z,94647.53
2018-11-25T10:04:59.742Z,94643.70
2018-11-25T10:07:28.802Z,94644.56
2018-11-25T10:09:59.801Z,94637.35
2018-11-25T10:12:28.850Z,94632.85
2018-11-25T10:14:58.201Z,94629.02
2018-11-25T10:17:27.243Z,94626.66
2018-11-25T10:19:59.560Z,94623.59
2018-11-25T10:22:40.373Z,94614.73
2018-11-25T10:25:10.468Z,94606.92
2018-11-25T10:27:39.538Z,94602.45
2018-11-25T10:30:08.704Z,94599.72
2018-11-25T10:32:38.014Z,94591.73
2018-11-25T10:37:43.004Z,94578.04
2018-11-25T10:40:12.094Z,94574.33
2018-11-25T10:42:42.124Z,94576.48
2018-11-25T10:45:11.480Z,94575.33
2018-11-25T10:47:49.242Z,94573.86
2018-11-25T10:52:55.014Z,94562.91
2018-11-25T10:55:24.367Z,94562.02
2018-11-25T10:58:02.035Z,94564.90
2018-11-25T11:00:38.634Z,94552.84
2018-11-25T11:03:16.865Z,94554.84
2018-11-25T11:05:50.497Z,94551.39
2018-11-25T11:11:00.868Z,94548.48
2018-11-25T11:13:35.625Z,94537.43
2018-11-25T11:16:10.423Z,94532.88
2018-11-25T11:18:44.825Z,94528.27
2018-11-25T11:21:18.479Z,94526.46
2018-11-25T11:23:51.139Z,94517.72
2018-11-25T11:26:25.183Z,94507.42
2018-11-25T11:29:01.121Z,94501.98
2018-11-25T11:31:34.851Z,94495.02
2018-11-25T11:34:11.078Z,94495.66
2018-11-25T11:36:44.138Z,94491.30
2018-11-25T11:39:19.752Z,94483.99
2018-11-25T11:41:52.814Z,94475.69
2018-11-25T11:44:25.546Z,94470.93
2018-11-25T11:47:01.064Z,94459.55
2018-11-25T11:49:36.598Z,94457.84
2018-11-25T11:52:11.551Z,94452.31
2018-11-25T11:54:45.401Z,94447.64
2018-11-25T11:57:20.646Z,94446.22
2018-11-25T11:59:53.729Z,94444.05
2018-11-25T12:02:31.499Z,94431.14
2018-11-25T12:05:07.673Z,94431.80
2018-11-25T12:07:42.806Z,94428.67
2018-11-25T12:10:17.036Z,94430.89
2018-11-25T12:12:49.345Z,94430.73
2018-11-25T12:15:30.435Z,94424.45
2018-11-25T12:17:59.198Z,94429.55
2018-11-25T12:20:33.877Z,94426.66
2018-11-25T12:23:08.853Z,94424.39
2018-11-25T12:25:43.106Z,94421.44
2018-11-25T12:32:08.460Z,94411.52
2018-11-25T12:34:42.486Z,94411.86
2018-11-25T12:37:15.733Z,94412.05
2018-11-25T12:39:49.743Z,94407.03
2018-11-25T12:42:24.451Z,94406.09
2018-11-25T12:44:59.960Z,94408.95
2018-11-25T12:47:46.374Z,94409.48
2018-11-25T12:54:09.992Z,94396.45
2018-11-25T12:56:51.650Z,94399.73
2018-11-25T12:59:29.583Z,94401.98
2018-11-25T13:02:02.294Z,94400.73
2018-11-25T13:04:35.679Z,94398.87
2018-11-25T13:07:10.057Z,94395.34
2018-11-25T13:09:44.068Z,94391.18
2018-11-25T13:12:18.369Z,94389.09
2018-11-25T13:15:04.960Z,94381.14
2018-11-25T13:17:41.158Z,94377.41
2018-11-25T13:20:17.721Z,94373.20
2018-11-25T13:22:55.836Z,94373.66
2018-11-25T13:25:36.260Z,94373.17
2018-11-25T13:28:18.965Z,94367.23
2018-11-25T13:31:18.175Z,94373.19
2018-11-25T13:33:52.238Z,94374.20
2018-11-25T13:36:28.566Z,94370.77
2018-11-25T13:39:02.686Z,94371.96
2018-11-25T13:41:35.669Z,94373.06
2018-11-25T13:44:08.195Z,94366.56
2018-11-25T13:46:38.218Z,94366.47
2018-11-25T13:49:07.290Z,94365.98
2018-11-25T13:51:37.290Z,94362.64
2018-11-25T13:54:06.421Z,94361.19
2018-11-25T13:56:39.389Z,94361.95
2018-11-25T13:59:12.359Z,94357.02
2018-11-25T14:04:35.960Z,94357.84
2018-11-25T14:07:07.653Z,94358.40
2018-11-25T14:10:17.812Z,94357.08
2018-11-25T14:12:47.214Z,94353.13
2018-11-25T14:15:16.428Z,94349.05
2018-11-25T14:17:45.671Z,94352.63
2018-11-25T14:20:15.407Z,94353.48
2018-11-25T14:22:46.588Z,94354.03
2018-11-25T14:25:15.821Z,94350.77
2018-11-25T14:28:28.115Z,94352.99
2018-11-25T14:30:57.492Z,94351.22
2018-11-25T14:33:26.783Z,94350.08
2018-11-25T14:35:55.900Z,94347.80
2018-11-25T14:38:24.954Z,94351.13
2018-11-25T14:40:54.022Z,94354.18
2018-11-25T14:43:30.815Z,94356.66
2018-11-25T14:49:48.889Z,94362.59
2018-11-25T14:52:18.335Z,94362.11
2018-11-25T14:54:53.519Z,94360.86
2018-11-25T14:57:22.736Z,94361.49
2018-11-25T14:59:51.803Z,94358.67
2018-11-25T15:02:20.958Z,94358.51
2018-11-25T15:04:50.012Z,94360.75
2018-11-25T15:07:19.080Z,94366.94
2018-11-25T15:09:48.147Z,94364.47
2018-11-25T15:12:17.236Z,94362.05
2018-11-25T15:14:46.302Z,94355.42
2018-11-25T15:17:15.409Z,94354.08
2018-11-25T15:19:44.485Z,94350.67
2018-11-25T15:22:13.526Z,94348.13
2018-11-25T15:24:42.571Z,94350.50
2018-11-25T15:27:12.519Z,94354.31
2018-11-25T15:29:41.581Z,94349.92
2018-11-25T15:32:10.614Z,94347.42
2018-11-25T15:34:51.833Z,94350.40
2018-11-25T15:37:20.854Z,94341.44
2018-11-25T15:39:50.550Z,94339.38
2018-11-25T15:42:19.629Z,94340.38
2018-11-25T15:44:49.866Z,94334.87
2018-11-25T15:47:18.927Z,94342.89
2018-11-25T15:49:48.653Z,94341.90
2018-11-25T15:52:17.814Z,94346.22
2018-11-25T15:54:46.852Z,94345.74
2018-11-25T15:57:15.904Z,94347.31
2018-11-25T15:59:45.024Z,94347.44
2018-11-25T16:02:14.997Z,94347.39
2018-11-25T16:04:44.907Z,94347.25
2018-11-25T16:07:13.933Z,94342.98
2018-11-25T16:09:43.107Z,94342.67
2018-11-25T16:12:12.183Z,94346.02
2018-11-25T16:14:41.225Z,94349.00
2018-11-25T16:17:15.641Z,94348.19
2018-11-25T16:19:44.681Z,94344.23
2018-11-25T16:22:13.750Z,94344.99
2018-11-25T16:24:42.795Z,94348.23
2018-11-25T16:27:11.823Z,94343.42
2018-11-25T16:29:42.319Z,94342.56
2018-11-25T16:32:11.400Z,94345.45
2018-11-25T16:34:40.470Z,94344.83
2018-11-25T16:37:09.551Z,94344.87
2018-11-25T16:39:38.605Z,94345.17
2018-11-25T16:42:07.642Z,94347.11
2018-11-25T16:44:36.691Z,94352.55
2018-11-25T16:47:05.732Z,94343.36
2018-11-25T16:49:34.796Z,94345.17
2018-11-25T16:52:03.982Z,94339.64
2018-11-25T16:54:33.018Z,94343.25
2018-11-25T16:57:02.080Z,94341.52
2018-11-25T16:59:31.222Z,94344.34
2018-11-25T17:02:00.291Z,94342.42
2018-11-25T17:04:29.358Z,94342.81
2018-11-25T17:06:58.486Z,94344.02
2018-11-25T17:09:27.535Z,94345.60
2018-11-25T17:11:56.708Z,94340.14
2018-11-25T17:14:33.601Z,94340.76
2018-11-25T17:16:55.678Z,94339.95
2018-11-25T17:19:24.883Z,94339.17
2018-11-25T17:21:54.102Z,94342.64
2018-11-25T17:24:23.169Z,94347.05
2018-11-25T17:26:52.209Z,94342.82
2018-11-25T17:29:21.935Z,94346.03
2018-11-25T17:31:50.990Z,94342.03
2018-11-25T17:34:20.039Z,94341.86
2018-11-25T17:36:50.070Z,94340.25
2018-11-25T17:39:19.150Z,94347.05
2018-11-25T17:41:48.265Z,94345.03
2018-11-25T17:44:22.052Z,94352.13
2018-11-25T17:46:51.274Z,94344.84
2018-11-25T17:49:20.336Z,94345.92
2018-11-25T17:51:49.371Z,94348.93
2018-11-25T17:54:18.423Z,94344.95
2018-11-25T17:56:47.470Z,94340.38
2018-11-25T17:59:17.520Z,94344.96
2018-11-25T18:01:46.567Z,94336.67
2018-11-25T18:04:15.622Z,94336.94
2018-11-25T18:06:44.693Z,94337.97
2018-11-25T18:09:13.793Z,94336.98
2018-11-25T18:11:42.821Z,94338.72
2018-11-25T18:14:11.884Z,94340.28
2018-11-25T18:16:40.955Z,94339.42
2018-11-25T18:19:10.006Z,94332.33
2018-11-25T18:21:39.233Z,94329.59
2018-11-25T18:24:08.400Z,94328.84
2018-11-25T18:26:47.959Z,94331.23
2018-11-25T18:29:17.003Z,94322.00
2018-11-25T18:31:46.079Z,94325.05
2018-11-25T18:34:15.115Z,94324.48
2018-11-25T18:36:44.167Z,94322.27
2018-11-25T18:39:13.211Z,94319.94
2018-11-25T18:41:42.272Z,94316.81
2018-11-25T18:44:12.332Z,94321.88
2018-11-25T18:46:46.563Z,94320.14
2018-11-25T18:49:10.888Z,94317.71
2018-11-25T18:51:41.984Z,94318.80
2018-11-25T18:54:11.046Z,94319.55
2018-11-25T18:56:40.172Z,94317.28
2018-11-25T18:59:09.209Z,94313.77
2018-11-25T19:01:39.163Z,94314.86
2018-11-25T19:04:08.261Z,94317.96
2018-11-25T19:06:38.226Z,94315.88
2018-11-25T19:09:07.322Z,94318.44
2018-11-25T19:11:36.371Z,94315.69
2018-11-25T19:14:05.421Z,94307.84
2018-11-25T19:16:35.439Z,94303.83
2018-11-25T19:19:04.479Z,94302.46
2018-11-25T19:21:33.614Z,94302.30
2018-11-25T19:24:02.637Z,94295.62
2018-11-25T19:26:31.697Z,94295.75
2018-11-25T19:29:00.856Z,94297.00
2018-11-25T19:31:29.916Z,94299.27
2018-11-25T19:34:10.629Z,94300.30
2018-11-25T19:36:40.161Z,94301.39
2018-11-25T19:39:09.375Z,94303.74
2018-11-25T19:41:38.498Z,94299.89
2018-11-25T19:44:07.585Z,94304.25
2018-11-25T19:46:36.620Z,94302.81
2018-11-25T19:49:05.678Z,94303.53
2018-11-25T19:51:34.755Z,94303.92
2018-11-25T19:54:03.857Z,94304.66
2018-11-25T19:56:32.964Z,94299.87
2018-11-25T19:59:02.042Z,94298.05
2018-11-25T20:01:31.150Z,94300.78
2018-11-25T20:04:00.199Z,94295.51
2018-11-25T20:06:29.253Z,94297.11
2018-11-25T20:08:58.400Z,94296.84
2018-11-25T20:11:27.713Z,94289.67
2018-11-25T20:13:57.124Z,94289.19
2018-11-25T20:16:26.553Z,94291.76
2018-11-25T20:18:55.728Z,94287.50
2018-11-25T20:21:24.780Z,94281.58
2018-11-25T20:23:53.871Z,94275.58
2018-11-25T20:26:22.920Z,94276.88
2018-11-25T20:28:52.019Z,94274.63
2018-11-25T20:31:21.189Z,94274.35
2018-11-25T20:33:52.388Z,94272.90
2018-11-25T20:36:19.362Z,94270.50
2018-11-25T20:39:05.066Z,94273.53
2018-11-25T20:41:34.138Z,94271.61
2018-11-25T20:44:03.212Z,94270.94
2018-11-25T20:49:26.866Z,94271.45
2018-11-25T20:51:56.197Z,94262.11
2018-11-25T20:54:25.252Z,94262.94
2018-11-25T20:56:54.293Z,94263.64
2018-11-25T20:59:23.370Z,94264.11
2018-11-25T21:01:52.466Z,94268.65
2018-11-25T21:04:21.490Z,94267.34
2018-11-25T21:06:50.661Z,94264.91
2018-11-25T21:09:19.706Z,94262.69
2018-11-25T21:14:24.726Z,94255.48
2018-11-25T21:21:32.106Z,94254.86
2018-11-25T21:24:02.396Z,94258.05
2018-11-25T21:26:32.563Z,94254.95
2018-11-25T21:31:37.339Z,94254.24
2018-11-25T21:34:06.434Z,94255.99
2018-11-25T21:36:35.508Z,94256.33
2018-11-25T21:39:05.680Z,94260.98
2018-11-25T21:41:34.957Z,94266.27
2018-11-25T21:44:04.373Z,94273.80
2018-11-25T21:46:33.588Z,94268.11
2018-11-25T21:49:02.761Z,94265.77
2018-11-25T21:51:31.823Z,94268.19
2018-11-25T21:54:00.879Z,94265.46
2018-11-25T21:56:30.956Z,94268.78
2018-11-25T22:01:36.010Z,94268.13
2018-11-25T22:04:12.632Z,94263.48
2018-11-25T22:06:41.778Z,94261.53
2018-11-25T22:09:11.842Z,94264.23
2018-11-25T22:11:43.765Z,94262.58
2018-11-25T22:14:14.257Z,94264.93
2018-11-25T22:16:43.688Z,94271.66
2018-11-25T22:19:12.872Z,94269.19
2018-11-25T22:21:42.157Z,94274.58
2018-11-25T22:24:11.267Z,94282.33
2018-11-25T22:26:40.476Z,94278.84
2018-11-25T22:29:10.703Z,94278.38
2018-11-25T22:31:39.775Z,94281.91
2018-11-25T22:34:08.914Z,94281.64
2018-11-25T22:36:37.997Z,94271.98
2018-11-25T22:39:07.127Z,94271.27
2018-11-25T22:41:36.230Z,94272.72
2018-11-25T22:44:05.338Z,94270.69
2018-11-25T22:46:34.497Z,94270.94
2018-11-25T22:51:39.349Z,94267.22
2018-11-25T22:54:11.237Z,94267.04
2018-11-25T22:56:40.317Z,94271.36
2018-11-25T22:59:09.922Z,94276.98
2018-11-25T23:01:39.085Z,94268.42
2018-11-25T23:04:25.802Z,94274.97
2018-11-25T23:06:54.854Z,94272.84
2018-11-25T23:09:23.915Z,94269.61
2018-11-25T23:11:52.966Z,94262.26
2018-11-25T23:14:22.022Z,94260.99
2018-11-25T23:16:51.090Z,94260.79
2018-11-25T23:19:20.177Z,94262.61
2018-11-25T23:24:24.912Z,94254.98
2018-11-25T23:26:54.080Z,94249.38
2018-11-25T23:29:31.914Z,94245.16
2018-11-25T23:37:13.334Z,94243.62
2018-11-25T23:39:42.382Z,94245.02
2018-11-25T23:42:13.138Z,94246.47
2018-11-25T23:44:42.406Z,94248.61
2018-11-25T23:47:11.443Z,94247.19
2018-11-25T23:49:40.487Z,94248.92
2018-11-25T23:52:09.543Z,94248.45
2018-11-25T23:54:38.603Z,94247.42
2018-11-25T23:57:08.559Z,94250.35
2018-11-25T23:59:37.651Z,94250.16
